sensor_id;sensor_type;location;lat;lon;timestamp;pressure;altitude;pressure_sealevel;temperature;humidity
65173;BME280;69059;52.218;5.172;2023-08-07T00:02:07;99186.56;;;13.82;100.00
65173;BME280;69059;52.218;5.172;2023-08-07T00:04:56;99183.16;;;13.81;100.00
65173;BME280;69059;52.218;5.172;2023-08-07T00:07:44;99188.03;;;13.89;100.00
65173;BME280;69059;52.218;5.172;2023-08-07T00:10:34;99179.97;;;13.96;100.00
65173;BME280;69059;52.218;5.172;2023-08-07T00:13:22;99177.44;;;14.01;100.00
65173;BME280;69059;52.218;5.172;2023-08-07T00:16:10;99143.25;;;13.96;100.00
65173;BME280;69059;52.218;5.172;2023-08-07T00:18:58;99178.47;;;14.00;100.00
65173;BME280;69059;52.218;5.172;2023-08-07T00:21:46;99190.72;;;13.94;100.00
65173;BME280;69059;52.218;5.172;2023-08-07T00:24:34;99174.41;;;14.09;100.00
65173;BME280;69059;52.218;5.172;2023-08-07T00:27:24;99169.81;;;13.99;100.00
65173;BME280;69059;52.218;5.172;2023-08-07T00:30:12;99165.25;;;13.28;100.00
65173;BME280;69059;52.218;5.172;2023-08-07T00:33:01;99204.34;;;13.46;100.00
65173;BME280;69059;52.218;5.172;2023-08-07T00:35:49;99221.28;;;13.39;100.00
65173;BME280;69059;52.218;5.172;2023-08-07T00:38:37;99237.34;;;13.31;100.00
65173;BME280;69059;52.218;5.172;2023-08-07T00:41:25;99240.31;;;13.34;100.00
65173;BME280;69059;52.218;5.172;2023-08-07T00:44:15;99239.69;;;13.44;100.00
65173;BME280;69059;52.218;5.172;2023-08-07T00:47:03;99243.44;;;13.48;100.00
65173;BME280;69059;52.218;5.172;2023-08-07T00:49:51;99240.81;;;13.48;100.00
65173;BME280;69059;52.218;5.172;2023-08-07T00:52:39;99239.16;;;13.42;100.00
65173;BME280;69059;52.218;5.172;2023-08-07T00:55:27;99240.66;;;13.38;100.00
65173;BME280;69059;52.218;5.172;2023-08-07T00:58:16;99237.06;;;13.44;100.00
65173;BME280;69059;52.218;5.172;2023-08-07T01:01:05;99236.28;;;13.43;100.00
65173;BME280;69059;52.218;5.172;2023-08-07T01:03:54;99235.63;;;13.36;100.00
65173;BME280;69059;52.218;5.172;2023-08-07T01:06:42;99232.00;;;13.37;100.00
65173;BME280;69059;52.218;5.172;2023-08-07T01:09:30;99218.66;;;13.39;100.00
65173;BME280;69059;52.218;5.172;2023-08-07T01:12:18;99222.63;;;13.41;100.00
65173;BME280;69059;52.218;5.172;2023-08-07T01:15:09;99215.81;;;13.57;100.00
65173;BME280;69059;52.218;5.172;2023-08-07T01:18:02;99210.72;;;13.50;100.00
65173;BME280;69059;52.218;5.172;2023-08-07T01:20:51;99212.00;;;13.48;100.00
65173;BME280;69059;52.218;5.172;2023-08-07T01:23:41;99214.03;;;13.46;100.00
65173;BME280;69059;52.218;5.172;2023-08-07T01:26:29;99215.28;;;13.26;100.00
65173;BME280;69059;52.218;5.172;2023-08-07T01:29:19;99208.16;;;13.39;100.00
65173;BME280;69059;52.218;5.172;2023-08-07T01:32:09;99215.88;;;13.45;100.00
65173;BME280;69059;52.218;5.172;2023-08-07T01:34:58;99212.16;;;13.41;100.00
65173;BME280;69059;52.218;5.172;2023-08-07T01:37:48;99215.34;;;13.32;100.00
65173;BME280;69059;52.218;5.172;2023-08-07T01:40:39;99218.13;;;13.25;100.00
65173;BME280;69059;52.218;5.172;2023-08-07T01:43:28;99213.22;;;13.29;100.00
65173;BME280;69059;52.218;5.172;2023-08-07T01:46:16;99212.16;;;13.41;100.00
65173;BME280;69059;52.218;5.172;2023-08-07T01:49:05;99208.63;;;13.36;100.00
65173;BME280;69059;52.218;5.172;2023-08-07T01:51:53;99212.38;;;13.40;100.00
65173;BME280;69059;52.218;5.172;2023-08-07T01:54:41;99217.13;;;13.43;100.00
65173;BME280;69059;52.218;5.172;2023-08-07T01:57:30;99230.34;;;13.19;100.00
65173;BME280;69059;52.218;5.172;2023-08-07T02:00:19;99232.97;;;13.48;100.00
65173;BME280;69059;52.218;5.172;2023-08-07T02:03:07;99237.84;;;13.27;100.00
65173;BME280;69059;52.218;5.172;2023-08-07T02:05:55;99237.22;;;13.37;100.00
65173;BME280;69059;52.218;5.172;2023-08-07T02:08:43;99241.09;;;13.35;100.00
65173;BME280;69059;52.218;5.172;2023-08-07T02:11:31;99248.75;;;13.36;100.00
65173;BME280;69059;52.218;5.172;2023-08-07T02:14:21;99244.72;;;13.45;100.00
65173;BME280;69059;52.218;5.172;2023-08-07T02:17:09;99247.31;;;13.45;100.00
65173;BME280;69059;52.218;5.172;2023-08-07T02:19:57;99237.88;;;13.44;100.00
65173;BME280;69059;52.218;5.172;2023-08-07T02:22:45;99242.81;;;13.41;100.00
65173;BME280;69059;52.218;5.172;2023-08-07T02:25:34;99249.66;;;13.42;100.00
65173;BME280;69059;52.218;5.172;2023-08-07T02:28:22;99241.72;;;13.53;100.00
65173;BME280;69059;52.218;5.172;2023-08-07T02:31:11;99249.72;;;13.47;100.00
65173;BME280;69059;52.218;5.172;2023-08-07T02:33:59;99243.56;;;13.70;100.00
65173;BME280;69059;52.218;5.172;2023-08-07T02:36:47;99245.25;;;13.76;100.00
65173;BME280;69059;52.218;5.172;2023-08-07T02:39:35;99247.91;;;13.92;100.00
65173;BME280;69059;52.218;5.172;2023-08-07T02:42:23;99235.25;;;13.89;100.00
65173;BME280;69059;52.218;5.172;2023-08-07T02:45:11;99238.00;;;13.83;100.00
65173;BME280;69059;52.218;5.172;2023-08-07T02:48:01;99235.56;;;13.76;100.00
65173;BME280;69059;52.218;5.172;2023-08-07T02:50:49;99242.97;;;13.79;100.00
65173;BME280;69059;52.218;5.172;2023-08-07T02:53:38;99245.78;;;13.61;100.00
65173;BME280;69059;52.218;5.172;2023-08-07T02:56:26;99254.09;;;13.58;100.00
65173;BME280;69059;52.218;5.172;2023-08-07T02:59:14;99266.84;;;13.38;100.00
65173;BME280;69059;52.218;5.172;2023-08-07T03:02:02;99263.72;;;13.52;100.00
65173;BME280;69059;52.218;5.172;2023-08-07T03:04:52;99260.53;;;13.50;100.00
65173;BME280;69059;52.218;5.172;2023-08-07T03:07:40;99268.06;;;13.47;100.00
65173;BME280;69059;52.218;5.172;2023-08-07T03:10:28;99282.84;;;13.24;100.00
65173;BME280;69059;52.218;5.172;2023-08-07T03:13:16;99297.41;;;13.32;100.00
65173;BME280;69059;52.218;5.172;2023-08-07T03:16:05;99295.69;;;13.38;100.00
65173;BME280;69059;52.218;5.172;2023-08-07T03:18:54;99293.94;;;13.43;100.00
65173;BME280;69059;52.218;5.172;2023-08-07T03:21:43;99291.84;;;13.29;100.00
65173;BME280;69059;52.218;5.172;2023-08-07T03:24:31;99286.38;;;13.18;100.00
65173;BME280;69059;52.218;5.172;2023-08-07T03:27:19;99283.66;;;13.13;100.00
65173;BME280;69059;52.218;5.172;2023-08-07T03:30:07;99290.38;;;13.09;100.00
65173;BME280;69059;52.218;5.172;2023-08-07T03:32:55;99286.88;;;13.15;100.00
65173;BME280;69059;52.218;5.172;2023-08-07T03:35:43;99301.66;;;13.21;100.00
65173;BME280;69059;52.218;5.172;2023-08-07T03:38:33;99295.41;;;13.22;100.00
65173;BME280;69059;52.218;5.172;2023-08-07T03:41:21;99294.75;;;13.15;100.00
65173;BME280;69059;52.218;5.172;2023-08-07T03:44:10;99290.72;;;13.24;100.00
65173;BME280;69059;52.218;5.172;2023-08-07T03:46:58;99292.66;;;13.29;100.00
65173;BME280;69059;52.218;5.172;2023-08-07T03:49:46;99291.13;;;13.33;100.00
65173;BME280;69059;52.218;5.172;2023-08-07T03:52:34;99290.00;;;13.41;100.00
65173;BME280;69059;52.218;5.172;2023-08-07T03:55:24;99290.25;;;13.27;100.00
65173;BME280;69059;52.218;5.172;2023-08-07T03:58:12;99282.41;;;13.27;100.00
65173;BME280;69059;52.218;5.172;2023-08-07T04:01:00;99276.88;;;13.41;100.00
65173;BME280;69059;52.218;5.172;2023-08-07T04:03:48;99262.94;;;13.52;100.00
65173;BME280;69059;52.218;5.172;2023-08-07T04:06:36;99269.56;;;13.43;100.00
65173;BME280;69059;52.218;5.172;2023-08-07T04:09:24;99262.81;;;13.47;100.00
65173;BME280;69059;52.218;5.172;2023-08-07T04:12:13;99274.56;;;13.44;100.00
65173;BME280;69059;52.218;5.172;2023-08-07T04:15:02;99274.25;;;13.41;100.00
65173;BME280;69059;52.218;5.172;2023-08-07T04:17:50;99267.16;;;13.53;100.00
65173;BME280;69059;52.218;5.172;2023-08-07T04:20:38;99265.25;;;13.65;100.00
65173;BME280;69059;52.218;5.172;2023-08-07T04:23:26;99262.47;;;13.55;100.00
65173;BME280;69059;52.218;5.172;2023-08-07T04:26:14;99257.44;;;13.53;100.00
65173;BME280;69059;52.218;5.172;2023-08-07T04:29:03;99259.91;;;13.60;100.00
65173;BME280;69059;52.218;5.172;2023-08-07T04:31:51;99255.53;;;13.49;100.00
65173;BME280;69059;52.218;5.172;2023-08-07T04:34:39;99255.53;;;13.49;100.00
65173;BME280;69059;52.218;5.172;2023-08-07T04:37:27;99263.22;;;13.55;100.00
65173;BME280;69059;52.218;5.172;2023-08-07T04:40:17;99261.31;;;13.79;100.00
65173;BME280;69059;52.218;5.172;2023-08-07T04:43:04;99262.72;;;13.70;100.00
65173;BME280;69059;52.218;5.172;2023-08-07T04:45:54;99258.75;;;13.68;100.00
65173;BME280;69059;52.218;5.172;2023-08-07T04:48:42;99267.31;;;13.63;100.00
65173;BME280;69059;52.218;5.172;2023-08-07T04:51:30;99258.94;;;13.78;100.00
65173;BME280;69059;52.218;5.172;2023-08-07T04:54:18;99263.03;;;13.74;100.00
65173;BME280;69059;52.218;5.172;2023-08-07T04:57:06;99269.38;;;13.61;100.00
65173;BME280;69059;52.218;5.172;2023-08-07T04:59:54;99275.19;;;13.63;100.00
65173;BME280;69059;52.218;5.172;2023-08-07T05:02:44;99269.25;;;13.68;100.00
65173;BME280;69059;52.218;5.172;2023-08-07T05:05:32;99262.84;;;13.92;100.00
65173;BME280;69059;52.218;5.172;2023-08-07T05:08:20;99267.44;;;14.02;100.00
65173;BME280;69059;52.218;5.172;2023-08-07T05:11:08;99264.34;;;14.05;100.00
65173;BME280;69059;52.218;5.172;2023-08-07T05:13:57;99263.06;;;14.07;100.00
65173;BME280;69059;52.218;5.172;2023-08-07T05:16:46;99270.13;;;14.07;100.00
65173;BME280;69059;52.218;5.172;2023-08-07T05:19:35;99270.72;;;13.92;100.00
65173;BME280;69059;52.218;5.172;2023-08-07T05:22:23;99280.41;;;13.91;100.00
65173;BME280;69059;52.218;5.172;2023-08-07T05:25:11;99285.34;;;14.05;100.00
65173;BME280;69059;52.218;5.172;2023-08-07T05:28:02;99287.63;;;14.01;100.00
65173;BME280;69059;52.218;5.172;2023-08-07T05:30:50;99277.63;;;13.98;100.00
65173;BME280;69059;52.218;5.172;2023-08-07T05:33:38;99282.06;;;13.97;100.00
65173;BME280;69059;52.218;5.172;2023-08-07T05:36:27;99280.56;;;14.02;100.00
65173;BME280;69059;52.218;5.172;2023-08-07T05:39:18;99280.97;;;14.10;100.00
65173;BME280;69059;52.218;5.172;2023-08-07T05:42:06;99277.63;;;14.15;100.00
65173;BME280;69059;52.218;5.172;2023-08-07T05:44:54;99278.09;;;14.12;100.00
65173;BME280;69059;52.218;5.172;2023-08-07T05:47:42;99289.72;;;14.16;100.00
65173;BME280;69059;52.218;5.172;2023-08-07T05:50:30;99292.50;;;14.26;100.00
65173;BME280;69059;52.218;5.172;2023-08-07T05:53:20;99298.22;;;14.23;100.00
65173;BME280;69059;52.218;5.172;2023-08-07T05:56:08;99306.25;;;14.16;100.00
65173;BME280;69059;52.218;5.172;2023-08-07T05:58:56;99312.69;;;14.09;100.00
65173;BME280;69059;52.218;5.172;2023-08-07T06:01:44;99306.97;;;14.45;100.00
65173;BME280;69059;52.218;5.172;2023-08-07T06:04:33;99308.34;;;14.64;100.00
65173;BME280;69059;52.218;5.172;2023-08-07T06:07:21;99298.16;;;14.68;100.00
65173;BME280;69059;52.218;5.172;2023-08-07T06:10:11;99286.72;;;14.79;100.00
65173;BME280;69059;52.218;5.172;2023-08-07T06:12:59;99292.25;;;14.99;100.00
65173;BME280;69059;52.218;5.172;2023-08-07T06:15:47;99293.50;;;14.75;100.00
65173;BME280;69059;52.218;5.172;2023-08-07T06:18:35;99306.25;;;14.66;100.00
65173;BME280;69059;52.218;5.172;2023-08-07T06:21:24;99298.09;;;14.85;100.00
65173;BME280;69059;52.218;5.172;2023-08-07T06:24:12;99298.03;;;14.80;100.00
65173;BME280;69059;52.218;5.172;2023-08-07T06:27:01;99306.28;;;14.88;100.00
65173;BME280;69059;52.218;5.172;2023-08-07T06:29:49;99302.03;;;15.04;100.00
65173;BME280;69059;52.218;5.172;2023-08-07T06:32:37;99296.59;;;15.11;100.00
65173;BME280;69059;52.218;5.172;2023-08-07T06:35:25;99303.56;;;15.00;100.00
65173;BME280;69059;52.218;5.172;2023-08-07T06:38:14;99315.28;;;15.14;100.00
65173;BME280;69059;52.218;5.172;2023-08-07T06:41:02;99309.16;;;15.09;100.00
65173;BME280;69059;52.218;5.172;2023-08-07T06:43:51;99309.47;;;15.12;100.00
65173;BME280;69059;52.218;5.172;2023-08-07T06:46:39;99281.25;;;15.02;100.00
65173;BME280;69059;52.218;5.172;2023-08-07T06:49:27;99297.13;;;15.13;100.00
65173;BME280;69059;52.218;5.172;2023-08-07T06:52:18;99308.69;;;15.12;100.00
65173;BME280;69059;52.218;5.172;2023-08-07T06:55:06;99312.91;;;15.13;100.00
65173;BME280;69059;52.218;5.172;2023-08-07T06:57:55;99329.09;;;15.04;100.00
65173;BME280;69059;52.218;5.172;2023-08-07T07:00:45;99330.03;;;15.15;100.00
65173;BME280;69059;52.218;5.172;2023-08-07T07:03:33;99353.31;;;15.07;100.00
65173;BME280;69059;52.218;5.172;2023-08-07T07:06:21;99347.50;;;15.26;100.00
65173;BME280;69059;52.218;5.172;2023-08-07T07:09:12;99347.69;;;15.41;100.00
65173;BME280;69059;52.218;5.172;2023-08-07T07:12:03;99366.34;;;15.18;100.00
65173;BME280;69059;52.218;5.172;2023-08-07T07:14:51;99386.50;;;15.13;100.00
65173;BME280;69059;52.218;5.172;2023-08-07T07:17:40;99391.59;;;15.19;100.00
65173;BME280;69059;52.218;5.172;2023-08-07T07:20:28;99393.88;;;14.94;100.00
65173;BME280;69059;52.218;5.172;2023-08-07T07:23:16;99410.59;;;14.88;100.00
65173;BME280;69059;52.218;5.172;2023-08-07T07:26:04;99415.38;;;14.91;100.00
65173;BME280;69059;52.218;5.172;2023-08-07T07:28:52;99394.44;;;14.62;100.00
65173;BME280;69059;52.218;5.172;2023-08-07T07:31:40;99412.00;;;15.12;100.00
65173;BME280;69059;52.218;5.172;2023-08-07T07:34:29;99409.47;;;15.00;100.00
65173;BME280;69059;52.218;5.172;2023-08-07T07:37:18;99415.22;;;14.64;100.00
65173;BME280;69059;52.218;5.172;2023-08-07T07:40:06;99432.59;;;14.37;100.00
65173;BME280;69059;52.218;5.172;2023-08-07T07:42:54;99439.00;;;14.57;100.00
65173;BME280;69059;52.218;5.172;2023-08-07T07:45:43;99443.72;;;14.89;100.00
65173;BME280;69059;52.218;5.172;2023-08-07T07:48:31;99429.78;;;15.05;100.00
65173;BME280;69059;52.218;5.172;2023-08-07T07:51:21;99403.19;;;15.01;100.00
65173;BME280;69059;52.218;5.172;2023-08-07T07:54:10;99418.38;;;15.55;100.00
65173;BME280;69059;52.218;5.172;2023-08-07T07:57:01;99413.06;;;15.33;100.00
65173;BME280;69059;52.218;5.172;2023-08-07T07:59:49;99405.25;;;15.38;100.00
65173;BME280;69059;52.218;5.172;2023-08-07T08:02:37;99406.84;;;15.39;100.00
65173;BME280;69059;52.218;5.172;2023-08-07T08:05:29;99411.56;;;15.59;100.00
65173;BME280;69059;52.218;5.172;2023-08-07T08:08:18;99420.66;;;15.68;100.00
65173;BME280;69059;52.218;5.172;2023-08-07T08:11:06;99395.66;;;15.92;100.00
65173;BME280;69059;52.218;5.172;2023-08-07T08:13:54;99385.47;;;16.01;100.00
65173;BME280;69059;52.218;5.172;2023-08-07T08:16:43;99390.47;;;16.29;100.00
65173;BME280;69059;52.218;5.172;2023-08-07T08:19:31;99388.66;;;16.35;100.00
65173;BME280;69059;52.218;5.172;2023-08-07T08:22:36;99387.25;;;16.54;100.00
65173;BME280;69059;52.218;5.172;2023-08-07T08:25:25;99379.34;;;17.38;100.00
65173;BME280;69059;52.218;5.172;2023-08-07T08:28:13;99415.53;;;16.96;100.00
65173;BME280;69059;52.218;5.172;2023-08-07T08:31:01;99470.63;;;16.38;100.00
65173;BME280;69059;52.218;5.172;2023-08-07T08:33:49;99492.78;;;16.42;100.00
65173;BME280;69059;52.218;5.172;2023-08-07T08:36:37;99497.50;;;16.40;100.00
65173;BME280;69059;52.218;5.172;2023-08-07T08:39:25;99506.66;;;16.33;100.00
65173;BME280;69059;52.218;5.172;2023-08-07T08:42:15;99522.94;;;15.86;100.00
65173;BME280;69059;52.218;5.172;2023-08-07T08:45:04;99537.66;;;15.49;100.00
65173;BME280;69059;52.218;5.172;2023-08-07T08:47:53;99559.34;;;14.89;100.00
65173;BME280;69059;52.218;5.172;2023-08-07T08:50:42;99551.38;;;15.51;100.00
65173;BME280;69059;52.218;5.172;2023-08-07T08:53:30;99516.75;;;15.97;100.00
65173;BME280;69059;52.218;5.172;2023-08-07T08:56:19;99502.69;;;16.30;100.00
65173;BME280;69059;52.218;5.172;2023-08-07T08:59:10;99475.19;;;16.75;100.00
65173;BME280;69059;52.218;5.172;2023-08-07T09:01:58;99475.56;;;16.62;100.00
65173;BME280;69059;52.218;5.172;2023-08-07T09:04:46;99464.47;;;16.87;100.00
65173;BME280;69059;52.218;5.172;2023-08-07T09:07:34;99475.88;;;16.97;100.00
65173;BME280;69059;52.218;5.172;2023-08-07T09:10:22;99472.72;;;17.37;100.00
65173;BME280;69059;52.218;5.172;2023-08-07T09:13:14;99527.75;;;16.87;100.00
65173;BME280;69059;52.218;5.172;2023-08-07T09:16:03;99530.50;;;17.02;100.00
65173;BME280;69059;52.218;5.172;2023-08-07T09:18:52;99536.59;;;16.75;100.00
65173;BME280;69059;52.218;5.172;2023-08-07T09:21:42;99547.91;;;17.03;100.00
65173;BME280;69059;52.218;5.172;2023-08-07T09:24:30;99549.25;;;17.05;100.00
65173;BME280;69059;52.218;5.172;2023-08-07T09:27:18;99581.66;;;16.74;100.00
65173;BME280;69059;52.218;5.172;2023-08-07T09:30:07;99586.78;;;16.86;100.00
65173;BME280;69059;52.218;5.172;2023-08-07T09:32:57;99600.78;;;16.42;100.00
65173;BME280;69059;52.218;5.172;2023-08-07T09:35:46;99615.16;;;16.13;100.00
65173;BME280;69059;52.218;5.172;2023-08-07T09:38:34;99593.06;;;16.58;100.00
65173;BME280;69059;52.218;5.172;2023-08-07T09:41:22;99582.13;;;16.98;100.00
65173;BME280;69059;52.218;5.172;2023-08-07T09:44:10;99580.66;;;17.07;100.00
65173;BME280;69059;52.218;5.172;2023-08-07T09:46:58;99593.28;;;17.05;100.00
65173;BME280;69059;52.218;5.172;2023-08-07T09:49:48;99628.53;;;16.50;100.00
65173;BME280;69059;52.218;5.172;2023-08-07T09:52:36;99642.81;;;15.77;100.00
65173;BME280;69059;52.218;5.172;2023-08-07T09:55:27;99636.13;;;16.25;100.00
65173;BME280;69059;52.218;5.172;2023-08-07T09:58:16;99625.22;;;16.16;100.00
65173;BME280;69059;52.218;5.172;2023-08-07T10:01:04;99634.28;;;15.87;100.00
65173;BME280;69059;52.218;5.172;2023-08-07T10:03:52;99636.69;;;15.88;100.00
65173;BME280;69059;52.218;5.172;2023-08-07T10:06:43;99623.03;;;16.30;100.00
65173;BME280;69059;52.218;5.172;2023-08-07T10:09:31;99609.31;;;16.71;100.00
65173;BME280;69059;52.218;5.172;2023-08-07T10:12:19;99620.69;;;16.55;100.00
65173;BME280;69059;52.218;5.172;2023-08-07T10:15:08;99626.41;;;16.69;100.00
65173;BME280;69059;52.218;5.172;2023-08-07T10:17:56;99650.97;;;16.74;100.00
65173;BME280;69059;52.218;5.172;2023-08-07T10:20:44;99658.31;;;17.21;100.00
65173;BME280;69059;52.218;5.172;2023-08-07T10:23:34;99668.75;;;17.38;100.00
65173;BME280;69059;52.218;5.172;2023-08-07T10:26:22;99767.56;;;16.26;100.00
65173;BME280;69059;52.218;5.172;2023-08-07T10:29:13;99728.13;;;16.31;100.00
65173;BME280;69059;52.218;5.172;2023-08-07T10:32:02;99683.19;;;17.03;100.00
65173;BME280;69059;52.218;5.172;2023-08-07T10:34:51;99729.66;;;16.88;100.00
65173;BME280;69059;52.218;5.172;2023-08-07T10:37:40;99729.06;;;17.02;100.00
65173;BME280;69059;52.218;5.172;2023-08-07T10:40:30;99784.91;;;16.77;100.00
65173;BME280;69059;52.218;5.172;2023-08-07T10:43:19;99791.31;;;16.65;100.00
65173;BME280;69059;52.218;5.172;2023-08-07T10:46:08;99834.34;;;16.54;100.00
65173;BME280;69059;52.218;5.172;2023-08-07T10:48:57;99894.81;;;16.15;100.00
65173;BME280;69059;52.218;5.172;2023-08-07T10:51:46;99888.13;;;16.07;100.00
65173;BME280;69059;52.218;5.172;2023-08-07T10:54:36;99857.19;;;16.31;100.00
65173;BME280;69059;52.218;5.172;2023-08-07T10:57:31;99904.09;;;15.89;100.00
65173;BME280;69059;52.218;5.172;2023-08-07T11:00:21;99878.16;;;15.81;100.00
65173;BME280;69059;52.218;5.172;2023-08-07T11:03:17;99791.31;;;16.65;100.00
65173;BME280;69059;52.218;5.172;2023-08-07T11:06:08;99849.53;;;16.30;100.00
65173;BME280;69059;52.218;5.172;2023-08-07T11:08:56;99845.78;;;16.42;100.00
65173;BME280;69059;52.218;5.172;2023-08-07T11:11:45;99846.31;;;16.61;100.00
65173;BME280;69059;52.218;5.172;2023-08-07T11:14:35;99864.75;;;16.95;100.00
65173;BME280;69059;52.218;5.172;2023-08-07T11:17:24;99949.50;;;17.03;100.00
65173;BME280;69059;52.218;5.172;2023-08-07T11:20:12;99945.81;;;17.21;100.00
65173;BME280;69059;52.218;5.172;2023-08-07T11:23:00;99962.44;;;17.05;100.00
65173;BME280;69059;52.218;5.172;2023-08-07T11:25:48;99984.13;;;17.45;100.00
65173;BME280;69059;52.218;5.172;2023-08-07T11:28:36;100034.41;;;17.72;100.00
65173;BME280;69059;52.218;5.172;2023-08-07T11:31:26;100069.69;;;17.66;100.00
65173;BME280;69059;52.218;5.172;2023-08-07T11:34:15;100095.97;;;17.78;100.00
65173;BME280;69059;52.218;5.172;2023-08-07T11:37:04;100156.94;;;17.93;100.00
65173;BME280;69059;52.218;5.172;2023-08-07T11:39:58;100240.38;;;18.49;100.00
65173;BME280;69059;52.218;5.172;2023-08-07T11:42:46;100473.28;;;18.65;100.00
65173;BME280;69059;52.218;5.172;2023-08-07T11:45:34;100526.41;;;18.80;100.00
65173;BME280;69059;52.218;5.172;2023-08-07T11:48:25;100726.22;;;18.59;100.00
65173;BME280;69059;52.218;5.172;2023-08-07T11:51:13;100592.91;;;19.89;100.00
65173;BME280;69059;52.218;5.172;2023-08-07T11:54:01;100862.97;;;20.24;100.00
65173;BME280;69059;52.218;5.172;2023-08-07T11:56:50;101158.19;;;19.59;100.00
65173;BME280;69059;52.218;5.172;2023-08-07T11:59:38;101255.63;;;19.09;100.00
65173;BME280;69059;52.218;5.172;2023-08-07T12:02:26;101166.97;;;19.30;100.00
65173;BME280;69059;52.218;5.172;2023-08-07T12:05:16;101245.97;;;19.45;100.00
65173;BME280;69059;52.218;5.172;2023-08-07T12:08:06;101277.56;;;19.58;100.00
65173;BME280;69059;52.218;5.172;2023-08-07T12:10:54;101371.66;;;19.42;100.00
65173;BME280;69059;52.218;5.172;2023-08-07T12:13:43;101360.94;;;19.97;100.00
65173;BME280;69059;52.218;5.172;2023-08-07T12:16:32;101356.06;;;19.52;100.00
65173;BME280;69059;52.218;5.172;2023-08-07T12:19:20;101317.91;;;19.12;100.00
65173;BME280;69059;52.218;5.172;2023-08-07T12:22:10;101153.78;;;20.12;100.00
65173;BME280;69059;52.218;5.172;2023-08-07T12:24:58;101221.88;;;20.86;100.00
65173;BME280;69059;52.218;5.172;2023-08-07T12:27:46;101341.28;;;20.86;100.00
65173;BME280;69059;52.218;5.172;2023-08-07T12:30:35;101326.22;;;21.43;100.00
65173;BME280;69059;52.218;5.172;2023-08-07T12:33:24;101337.31;;;21.12;100.00
65173;BME280;69059;52.218;5.172;2023-08-07T12:36:12;101385.59;;;20.74;100.00
65173;BME280;69059;52.218;5.172;2023-08-07T12:39:05;101421.00;;;20.45;100.00
65173;BME280;69059;52.218;5.172;2023-08-07T12:41:53;101388.91;;;20.34;100.00
65173;BME280;69059;52.218;5.172;2023-08-07T12:44:45;101444.41;;;20.36;100.00
65173;BME280;69059;52.218;5.172;2023-08-07T12:47:33;101283.56;;;22.12;100.00
65173;BME280;69059;52.218;5.172;2023-08-07T12:50:21;101363.16;;;22.02;100.00
65173;BME280;69059;52.218;5.172;2023-08-07T12:53:09;101510.31;;;20.74;100.00
65173;BME280;69059;52.218;5.172;2023-08-07T12:55:58;101436.16;;;20.26;100.00
65173;BME280;69059;52.218;5.172;2023-08-07T12:58:46;101433.75;;;19.10;100.00
65173;BME280;69059;52.218;5.172;2023-08-07T13:01:35;101412.31;;;19.66;100.00
65173;BME280;69059;52.218;5.172;2023-08-07T13:04:23;101363.16;;;19.22;100.00
65173;BME280;69059;52.218;5.172;2023-08-07T13:07:11;101392.78;;;19.30;100.00
65173;BME280;69059;52.218;5.172;2023-08-07T13:09:59;101356.47;;;19.38;100.00
65173;BME280;69059;52.218;5.172;2023-08-07T13:12:48;101349.81;;;20.30;100.00
65173;BME280;69059;52.218;5.172;2023-08-07T13:15:37;101297.13;;;20.68;100.00
65173;BME280;69059;52.218;5.172;2023-08-07T13:18:25;101275.47;;;22.62;100.00
65173;BME280;69059;52.218;5.172;2023-08-07T13:21:13;101452.28;;;23.48;100.00
65173;BME280;69059;52.218;5.172;2023-08-07T13:24:01;101533.69;;;23.56;100.00
65173;BME280;69059;52.218;5.172;2023-08-07T13:26:49;101559.56;;;20.82;100.00
65173;BME280;69059;52.218;5.172;2023-08-07T13:29:38;101502.25;;;21.39;100.00
65173;BME280;69059;52.218;5.172;2023-08-07T13:32:26;101556.44;;;21.26;100.00
65173;BME280;69059;52.218;5.172;2023-08-07T13:35:14;101516.47;;;21.21;100.00
65173;BME280;69059;52.218;5.172;2023-08-07T13:38:03;101547.97;;;21.64;100.00
65173;BME280;69059;52.218;5.172;2023-08-07T13:40:54;101558.72;;;22.09;100.00
65173;BME280;69059;52.218;5.172;2023-08-07T13:43:42;101593.53;;;22.65;100.00
65173;BME280;69059;52.218;5.172;2023-08-07T13:46:32;101604.94;;;20.92;100.00
65173;BME280;69059;52.218;5.172;2023-08-07T13:49:20;101584.00;;;21.60;100.00
65173;BME280;69059;52.218;5.172;2023-08-07T13:52:09;101557.78;;;21.64;100.00
65173;BME280;69059;52.218;5.172;2023-08-07T13:54:57;101527.69;;;21.87;100.00
65173;BME280;69059;52.218;5.172;2023-08-07T13:57:45;101581.09;;;22.70;100.00
65173;BME280;69059;52.218;5.172;2023-08-07T14:00:33;101579.13;;;22.49;100.00
65173;BME280;69059;52.218;5.172;2023-08-07T14:03:22;101545.88;;;22.80;100.00
65173;BME280;69059;52.218;5.172;2023-08-07T14:06:11;101589.25;;;22.07;100.00
65173;BME280;69059;52.218;5.172;2023-08-07T14:08:59;101573.25;;;21.43;100.00
65173;BME280;69059;52.218;5.172;2023-08-07T14:11:47;101556.38;;;21.61;100.00
65173;BME280;69059;52.218;5.172;2023-08-07T14:14:35;101603.66;;;22.79;100.00
65173;BME280;69059;52.218;5.172;2023-08-07T14:17:23;101612.56;;;22.16;100.00
65173;BME280;69059;52.218;5.172;2023-08-07T14:20:13;101586.34;;;21.97;100.00
65173;BME280;69059;52.218;5.172;2023-08-07T14:23:01;101593.56;;;21.73;100.00
65173;BME280;69059;52.218;5.172;2023-08-07T14:26:06;101528.00;;;22.02;100.00
65173;BME280;69059;52.218;5.172;2023-08-07T14:28:54;101583.84;;;21.90;100.00
65173;BME280;69059;52.218;5.172;2023-08-07T14:31:42;101581.19;;;21.78;100.00
65173;BME280;69059;52.218;5.172;2023-08-07T14:34:30;101598.94;;;22.13;100.00
65173;BME280;69059;52.218;5.172;2023-08-07T14:37:20;101596.78;;;21.87;100.00
65173;BME280;69059;52.218;5.172;2023-08-07T14:40:08;101563.56;;;23.58;100.00